sensor_id;sensor_type;location;lat;lon;timestamp;pressure;altitude;pressure_sealevel;temperature;humidity
34177;BME280;20450;49.074;9.158;2024-03-08T00:00:32;99770.47;;;5.52;71.41
34177;BME280;20450;49.074;9.158;2024-03-08T00:02:59;99759.13;;;5.50;71.73
34177;BME280;20450;49.074;9.158;2024-03-08T00:05:28;99771.00;;;5.48;71.80
34177;BME280;20450;49.074;9.158;2024-03-08T00:07:55;99762.88;;;5.41;72.20
34177;BME280;20450;49.074;9.158;2024-03-08T00:10:22;99758.81;;;5.45;72.42
34177;BME280;20450;49.074;9.158;2024-03-08T00:12:52;99759.34;;;5.41;72.42
34177;BME280;20450;49.074;9.158;2024-03-08T00:15:19;99756.00;;;5.39;71.74
34177;BME280;20450;49.074;9.158;2024-03-08T00:17:46;99759.34;;;5.41;71.77
34177;BME280;20450;49.074;9.158;2024-03-08T00:20:15;99756.50;;;5.42;71.94
34177;BME280;20450;49.074;9.158;2024-03-08T00:22:44;99755.72;;;5.34;71.98
34177;BME280;20450;49.074;9.158;2024-03-08T00:25:11;99753.09;;;5.26;71.85
34177;BME280;20450;49.074;9.158;2024-03-08T00:27:38;99740.25;;;5.21;71.99
34177;BME280;20450;49.074;9.158;2024-03-08T00:30:06;99745.25;;;5.24;72.54
34177;BME280;20450;49.074;9.158;2024-03-08T00:32:35;99738.75;;;5.19;72.10
34177;BME280;20450;49.074;9.158;2024-03-08T00:35:02;99733.59;;;5.17;72.21
34177;BME280;20450;49.074;9.158;2024-03-08T00:37:30;99733.94;;;5.14;71.81
34177;BME280;20450;49.074;9.158;2024-03-08T00:39:59;99732.06;;;5.15;72.58
34177;BME280;20450;49.074;9.158;2024-03-08T00:42:26;99726.72;;;5.15;72.35
34177;BME280;20450;49.074;9.158;2024-03-08T00:44:54;99732.34;;;5.05;72.59
34177;BME280;20450;49.074;9.158;2024-03-08T00:47:21;99733.28;;;5.12;72.10
34177;BME280;20450;49.074;9.158;2024-03-08T00:49:48;99728.22;;;5.17;71.59
34177;BME280;20450;49.074;9.158;2024-03-08T00:52:15;99719.19;;;5.18;71.90
34177;BME280;20450;49.074;9.158;2024-03-08T00:54:42;99723.34;;;5.21;72.00
34177;BME280;20450;49.074;9.158;2024-03-08T00:57:10;99729.03;;;5.18;72.13
34177;BME280;20450;49.074;9.158;2024-03-08T00:59:38;99714.66;;;5.19;72.39
34177;BME280;20450;49.074;9.158;2024-03-08T01:02:05;99709.34;;;5.11;72.14
34177;BME280;20450;49.074;9.158;2024-03-08T01:04:32;99713.53;;;5.13;71.96
34177;BME280;20450;49.074;9.158;2024-03-08T01:06:59;99702.00;;;5.13;72.36
34177;BME280;20450;49.074;9.158;2024-03-08T01:09:27;99704.66;;;5.13;72.25
34177;BME280;20450;49.074;9.158;2024-03-08T01:11:55;99701.09;;;5.20;72.45
34177;BME280;20450;49.074;9.158;2024-03-08T01:14:24;99690.94;;;5.16;71.60
34177;BME280;20450;49.074;9.158;2024-03-08T01:16:51;99697.34;;;5.07;71.92
34177;BME280;20450;49.074;9.158;2024-03-08T01:19:21;99691.63;;;5.10;72.31
34177;BME280;20450;49.074;9.158;2024-03-08T01:21:48;99690.97;;;5.08;71.84
34177;BME280;20450;49.074;9.158;2024-03-08T01:24:15;99698.38;;;5.06;71.90
34177;BME280;20450;49.074;9.158;2024-03-08T01:26:42;99693.03;;;5.06;71.27
34177;BME280;20450;49.074;9.158;2024-03-08T01:29:09;99698.03;;;5.09;71.85
34177;BME280;20450;49.074;9.158;2024-03-08T01:31:37;99684.28;;;5.12;72.14
34177;BME280;20450;49.074;9.158;2024-03-08T01:34:04;99680.97;;;5.02;71.76
34177;BME280;20450;49.074;9.158;2024-03-08T01:36:31;99680.75;;;4.89;72.41
34177;BME280;20450;49.074;9.158;2024-03-08T01:38:58;99679.09;;;4.88;72.84
34177;BME280;20450;49.074;9.158;2024-03-08T01:41:25;99674.38;;;4.90;73.21
34177;BME280;20450;49.074;9.158;2024-03-08T01:43:52;99672.16;;;4.71;73.23
34177;BME280;20450;49.074;9.158;2024-03-08T01:46:21;99671.63;;;4.75;72.98
34177;BME280;20450;49.074;9.158;2024-03-08T01:48:50;99668.28;;;4.73;73.59
34177;BME280;20450;49.074;9.158;2024-03-08T01:51:19;99666.25;;;4.83;72.88
34177;BME280;20450;49.074;9.158;2024-03-08T01:53:47;99662.41;;;4.78;72.86
34177;BME280;20450;49.074;9.158;2024-03-08T01:56:16;99665.75;;;4.80;72.83
34177;BME280;20450;49.074;9.158;2024-03-08T01:58:44;99667.47;;;4.73;72.28
34177;BME280;20450;49.074;9.158;2024-03-08T02:01:12;99654.38;;;4.78;72.02
34177;BME280;20450;49.074;9.158;2024-03-08T02:03:39;99649.03;;;4.78;72.18
34177;BME280;20450;49.074;9.158;2024-03-08T02:06:07;99647.06;;;4.72;71.78
34177;BME280;20450;49.074;9.158;2024-03-08T02:08:35;99646.19;;;4.79;72.21
34177;BME280;20450;49.074;9.158;2024-03-08T02:11:02;99640.38;;;4.76;71.72
34177;BME280;20450;49.074;9.158;2024-03-08T02:13:30;99642.03;;;4.77;72.29
34177;BME280;20450;49.074;9.158;2024-03-08T02:15:58;99636.69;;;4.77;71.97
34177;BME280;20450;49.074;9.158;2024-03-08T02:18:28;99629.53;;;4.69;72.75
34177;BME280;20450;49.074;9.158;2024-03-08T02:20:58;99637.91;;;4.66;72.51
34177;BME280;20450;49.074;9.158;2024-03-08T02:23:26;99636.09;;;4.67;72.42
34177;BME280;20450;49.074;9.158;2024-03-08T02:25:55;99620.03;;;4.67;72.28
34177;BME280;20450;49.074;9.158;2024-03-08T02:28:23;99626.41;;;4.66;73.17
34177;BME280;20450;49.074;9.158;2024-03-08T02:30:51;99630.06;;;4.65;72.05
34177;BME280;20450;49.074;9.158;2024-03-08T02:33:18;99615.41;;;4.61;72.52
34177;BME280;20450;49.074;9.158;2024-03-08T02:35:46;99624.09;;;4.63;72.49
34177;BME280;20450;49.074;9.158;2024-03-08T02:38:17;99621.41;;;4.63;72.84
34177;BME280;20450;49.074;9.158;2024-03-08T02:40:45;99606.34;;;4.62;71.96
34177;BME280;20450;49.074;9.158;2024-03-08T02:43:15;99607.53;;;4.59;72.70
34177;BME280;20450;49.074;9.158;2024-03-08T02:45:42;99603.75;;;4.54;72.24
34177;BME280;20450;49.074;9.158;2024-03-08T02:48:10;99606.69;;;4.59;72.31
34177;BME280;20450;49.074;9.158;2024-03-08T02:50:37;99609.56;;;4.57;72.20
34177;BME280;20450;49.074;9.158;2024-03-08T02:53:04;99607.31;;;4.46;72.36
34177;BME280;20450;49.074;9.158;2024-03-08T02:55:32;99610.25;;;4.51;72.46
34177;BME280;20450;49.074;9.158;2024-03-08T02:57:59;99599.03;;;4.56;71.77
34177;BME280;20450;49.074;9.158;2024-03-08T03:00:27;99603.03;;;4.60;71.93
34177;BME280;20450;49.074;9.158;2024-03-08T03:02:54;99603.41;;;4.57;72.35
34177;BME280;20450;49.074;9.158;2024-03-08T03:05:21;99601.34;;;4.59;71.52
34177;BME280;20450;49.074;9.158;2024-03-08T03:07:48;99601.72;;;4.56;71.54
34177;BME280;20450;49.074;9.158;2024-03-08T03:10:16;99598.56;;;4.52;71.67
34177;BME280;20450;49.074;9.158;2024-03-08T03:12:46;99596.72;;;4.53;71.71
34177;BME280;20450;49.074;9.158;2024-03-08T03:15:13;99594.34;;;4.58;71.95
34177;BME280;20450;49.074;9.158;2024-03-08T03:17:40;99586.72;;;4.47;71.52
34177;BME280;20450;49.074;9.158;2024-03-08T03:20:09;99578.69;;;4.47;71.66
34177;BME280;20450;49.074;9.158;2024-03-08T03:22:36;99590.78;;;4.43;71.67
34177;BME280;20450;49.074;9.158;2024-03-08T03:25:04;99580.66;;;4.53;71.99
34177;BME280;20450;49.074;9.158;2024-03-08T03:27:31;99572.63;;;4.53;71.69
34177;BME280;20450;49.074;9.158;2024-03-08T03:30:00;99581.50;;;4.53;71.86
34177;BME280;20450;49.074;9.158;2024-03-08T03:32:27;99581.88;;;4.50;71.67
34177;BME280;20450;49.074;9.158;2024-03-08T03:34:54;99582.00;;;4.57;71.22
34177;BME280;20450;49.074;9.158;2024-03-08T03:37:21;99585.31;;;4.59;72.16
34177;BME280;20450;49.074;9.158;2024-03-08T03:39:48;99579.84;;;4.52;71.75
34177;BME280;20450;49.074;9.158;2024-03-08T03:42:16;99576.50;;;4.73;71.33
34177;BME280;20450;49.074;9.158;2024-03-08T03:44:44;99576.34;;;4.74;71.52
34177;BME280;20450;49.074;9.158;2024-03-08T03:47:13;99579.09;;;4.81;71.09
34177;BME280;20450;49.074;9.158;2024-03-08T03:49:40;99579.22;;;4.87;71.14
34177;BME280;20450;49.074;9.158;2024-03-08T03:52:08;99567.31;;;4.90;70.92
34177;BME280;20450;49.074;9.158;2024-03-08T03:54:35;99570.91;;;4.82;70.91
34177;BME280;20450;49.074;9.158;2024-03-08T03:57:02;99560.88;;;4.84;71.81
34177;BME280;20450;49.074;9.158;2024-03-08T03:59:29;99564.75;;;4.82;71.74
34177;BME280;20450;49.074;9.158;2024-03-08T04:01:56;99566.75;;;4.80;72.20
34177;BME280;20450;49.074;9.158;2024-03-08T04:04:25;99571.53;;;4.47;72.26
34177;BME280;20450;49.074;9.158;2024-03-08T04:06:51;99561.94;;;4.53;72.16
34177;BME280;20450;49.074;9.158;2024-03-08T04:09:19;99558.56;;;4.59;72.40
34177;BME280;20450;49.074;9.158;2024-03-08T04:11:46;99564.22;;;4.64;72.61
34177;BME280;20450;49.074;9.158;2024-03-08T04:14:13;99557.22;;;4.63;72.29
34177;BME280;20450;49.074;9.158;2024-03-08T04:16:40;99560.06;;;4.61;72.06
34177;BME280;20450;49.074;9.158;2024-03-08T04:19:07;99557.22;;;4.63;72.19
34177;BME280;20450;49.074;9.158;2024-03-08T04:21:36;99556.47;;;4.69;72.25
34177;BME280;20450;49.074;9.158;2024-03-08T04:24:03;99557.31;;;4.69;71.99
34177;BME280;20450;49.074;9.158;2024-03-08T04:26:30;99556.75;;;4.74;71.66
34177;BME280;20450;49.074;9.158;2024-03-08T04:28:58;99561.75;;;4.77;71.68
34177;BME280;20450;49.074;9.158;2024-03-08T04:31:25;99557.78;;;4.73;71.95
34177;BME280;20450;49.074;9.158;2024-03-08T04:33:52;99548.44;;;4.69;71.63
34177;BME280;20450;49.074;9.158;2024-03-08T04:36:19;99556.06;;;4.57;71.95
34177;BME280;20450;49.074;9.158;2024-03-08T04:38:48;99544.72;;;4.55;72.29
34177;BME280;20450;49.074;9.158;2024-03-08T04:41:16;99543.16;;;4.61;72.37
34177;BME280;20450;49.074;9.158;2024-03-08T04:43:43;99544.19;;;4.60;72.61
34177;BME280;20450;49.074;9.158;2024-03-08T04:46:10;99545.34;;;4.57;72.81
34177;BME280;20450;49.074;9.158;2024-03-08T04:48:37;99543.72;;;4.56;73.12
34177;BME280;20450;49.074;9.158;2024-03-08T04:51:04;99541.56;;;4.52;72.98
34177;BME280;20450;49.074;9.158;2024-03-08T04:53:31;99547.81;;;4.44;73.32
34177;BME280;20450;49.074;9.158;2024-03-08T04:55:59;99535.31;;;4.37;73.28
34177;BME280;20450;49.074;9.158;2024-03-08T04:58:26;99534.31;;;4.38;73.38
34177;BME280;20450;49.074;9.158;2024-03-08T05:00:53;99539.31;;;4.41;73.42
34177;BME280;20450;49.074;9.158;2024-03-08T05:03:20;99531.94;;;4.43;73.51
34177;BME280;20450;49.074;9.158;2024-03-08T05:05:47;99536.34;;;4.36;73.44
34177;BME280;20450;49.074;9.158;2024-03-08T05:08:14;99542.16;;;4.39;73.27
34177;BME280;20450;49.074;9.158;2024-03-08T05:10:41;99539.31;;;4.41;73.39
34177;BME280;20450;49.074;9.158;2024-03-08T05:13:10;99531.00;;;4.36;73.90
34177;BME280;20450;49.074;9.158;2024-03-08T05:15:38;99533.88;;;4.03;74.74
34177;BME280;20450;49.074;9.158;2024-03-08T05:18:05;99528.53;;;4.03;74.85
34177;BME280;20450;49.074;9.158;2024-03-08T05:20:32;99526.72;;;3.96;75.26
34177;BME280;20450;49.074;9.158;2024-03-08T05:22:59;99531.88;;;4.05;75.46
34177;BME280;20450;49.074;9.158;2024-03-08T05:25:27;99531.09;;;3.97;75.40
34177;BME280;20450;49.074;9.158;2024-03-08T05:27:54;99523.34;;;4.02;75.42
34177;BME280;20450;49.074;9.158;2024-03-08T05:30:25;99520.56;;;3.95;74.80
34177;BME280;20450;49.074;9.158;2024-03-08T05:32:52;99523.06;;;3.97;74.79
34177;BME280;20450;49.074;9.158;2024-03-08T05:35:19;99528.09;;;3.92;75.32
34177;BME280;20450;49.074;9.158;2024-03-08T05:37:46;99525.28;;;3.85;74.78
34177;BME280;20450;49.074;9.158;2024-03-08T05:40:13;99512.91;;;3.92;75.49
34177;BME280;20450;49.074;9.158;2024-03-08T05:42:44;99518.84;;;4.02;74.84
34177;BME280;20450;49.074;9.158;2024-03-08T05:45:12;99516.19;;;4.02;74.79
34177;BME280;20450;49.074;9.158;2024-03-08T05:47:40;99512.38;;;3.97;74.57
34177;BME280;20450;49.074;9.158;2024-03-08T05:50:07;99526.00;;;4.10;75.47
34177;BME280;20450;49.074;9.158;2024-03-08T05:52:35;99516.38;;;4.24;75.24
34177;BME280;20450;49.074;9.158;2024-03-08T05:55:02;99517.81;;;4.34;74.67
34177;BME280;20450;49.074;9.158;2024-03-08T05:57:29;99516.03;;;4.27;74.09
34177;BME280;20450;49.074;9.158;2024-03-08T05:59:56;99516.97;;;4.34;74.65
34177;BME280;20450;49.074;9.158;2024-03-08T06:02:23;99514.97;;;4.36;74.06
34177;BME280;20450;49.074;9.158;2024-03-08T06:04:51;99512.88;;;4.46;74.71
34177;BME280;20450;49.074;9.158;2024-03-08T06:07:18;99511.13;;;4.53;74.15
34177;BME280;20450;49.074;9.158;2024-03-08T06:09:45;99510.69;;;4.86;73.85
34177;BME280;20450;49.074;9.158;2024-03-08T06:12:13;99500.53;;;5.11;72.16
34177;BME280;20450;49.074;9.158;2024-03-08T06:14:40;99503.50;;;5.45;70.96
34177;BME280;20450;49.074;9.158;2024-03-08T06:17:07;99502.47;;;5.31;70.12
34177;BME280;20450;49.074;9.158;2024-03-08T06:19:34;99497.03;;;5.83;71.30
34177;BME280;20450;49.074;9.158;2024-03-08T06:22:02;99495.41;;;6.45;75.60
34177;BME280;20450;49.074;9.158;2024-03-08T06:24:29;99498.94;;;6.94;72.83
34177;BME280;20450;49.074;9.158;2024-03-08T06:26:56;99498.59;;;6.76;65.33
34177;BME280;20450;49.074;9.158;2024-03-08T06:29:23;99489.50;;;6.77;68.75
34177;BME280;20450;49.074;9.158;2024-03-08T06:31:50;99497.31;;;7.27;66.78
34177;BME280;20450;49.074;9.158;2024-03-08T06:34:19;99503.16;;;7.37;63.13
34177;BME280;20450;49.074;9.158;2024-03-08T06:36:46;99512.56;;;8.01;62.18
34177;BME280;20450;49.074;9.158;2024-03-08T06:39:14;99515.88;;;8.03;60.99
34177;BME280;20450;49.074;9.158;2024-03-08T06:41:42;99501.72;;;8.36;61.36
34177;BME280;20450;49.074;9.158;2024-03-08T06:44:09;99511.06;;;8.72;60.87
34177;BME280;20450;49.074;9.158;2024-03-08T06:46:36;99517.91;;;8.94;58.70
34177;BME280;20450;49.074;9.158;2024-03-08T06:49:03;99519.16;;;9.05;58.59
34177;BME280;20450;49.074;9.158;2024-03-08T06:51:30;99527.38;;;8.38;57.39
34177;BME280;20450;49.074;9.158;2024-03-08T06:53:57;99519.56;;;7.89;58.59
34177;BME280;20450;49.074;9.158;2024-03-08T06:56:25;99517.00;;;8.22;59.76
34177;BME280;20450;49.074;9.158;2024-03-08T06:58:52;99512.88;;;8.26;58.99
34177;BME280;20450;49.074;9.158;2024-03-08T07:01:19;99524.69;;;8.38;57.58
34177;BME280;20450;49.074;9.158;2024-03-08T07:03:46;99512.38;;;8.09;57.75
34177;BME280;20450;49.074;9.158;2024-03-08T07:06:13;99498.63;;;8.52;63.57
34177;BME280;20450;49.074;9.158;2024-03-08T07:08:40;99507.59;;;7.58;60.95
34177;BME280;20450;49.074;9.158;2024-03-08T07:11:07;99514.78;;;8.65;58.07
34177;BME280;20450;49.074;9.158;2024-03-08T07:13:35;99507.00;;;7.62;59.63
34177;BME280;20450;49.074;9.158;2024-03-08T07:16:03;99506.97;;;8.03;59.49
34177;BME280;20450;49.074;9.158;2024-03-08T07:18:30;99509.41;;;7.85;59.66
34177;BME280;20450;49.074;9.158;2024-03-08T07:20:57;99507.50;;;8.33;59.50
34177;BME280;20450;49.074;9.158;2024-03-08T07:23:25;99505.25;;;7.89;58.84
34177;BME280;20450;49.074;9.158;2024-03-08T07:25:52;99490.97;;;7.35;61.10
34177;BME280;20450;49.074;9.158;2024-03-08T07:28:19;99491.25;;;7.53;60.71
34177;BME280;20450;49.074;9.158;2024-03-08T07:30:47;99499.50;;;7.98;60.48
34177;BME280;20450;49.074;9.158;2024-03-08T07:33:14;99484.28;;;7.31;61.79
34177;BME280;20450;49.074;9.158;2024-03-08T07:35:42;99486.16;;;6.96;63.15
34177;BME280;20450;49.074;9.158;2024-03-08T07:38:09;99485.06;;;6.63;62.82
34177;BME280;20450;49.074;9.158;2024-03-08T07:40:37;99490.50;;;6.49;64.94
34177;BME280;20450;49.074;9.158;2024-03-08T07:43:05;99483.47;;;6.27;65.21
34177;BME280;20450;49.074;9.158;2024-03-08T07:45:32;99478.06;;;6.20;66.65
34177;BME280;20450;49.074;9.158;2024-03-08T07:48:00;99488.81;;;5.84;67.33
34177;BME280;20450;49.074;9.158;2024-03-08T07:50:27;99480.72;;;5.70;68.93
34177;BME280;20450;49.074;9.158;2024-03-08T07:52:54;99485.78;;;5.29;69.83
34177;BME280;20450;49.074;9.158;2024-03-08T07:55:21;99485.13;;;5.27;70.41
34177;BME280;20450;49.074;9.158;2024-03-08T07:57:48;99482.09;;;5.16;70.63
34177;BME280;20450;49.074;9.158;2024-03-08T08:00:16;99474.69;;;5.18;70.99
34177;BME280;20450;49.074;9.158;2024-03-08T08:02:44;99478.03;;;5.20;70.16
34177;BME280;20450;49.074;9.158;2024-03-08T08:05:13;99481.19;;;5.09;71.12
34177;BME280;20450;49.074;9.158;2024-03-08T08:07:39;99468.41;;;5.11;70.56
34177;BME280;20450;49.074;9.158;2024-03-08T08:10:08;99475.91;;;5.01;71.52
34177;BME280;20450;49.074;9.158;2024-03-08T08:12:35;99471.38;;;5.16;71.66
34177;BME280;20450;49.074;9.158;2024-03-08T08:15:02;99461.22;;;5.11;71.67
34177;BME280;20450;49.074;9.158;2024-03-08T08:17:29;99473.22;;;5.15;71.27
34177;BME280;20450;49.074;9.158;2024-03-08T08:19:56;99465.00;;;5.31;71.35
34177;BME280;20450;49.074;9.158;2024-03-08T08:22:24;99464.63;;;5.20;71.10
34177;BME280;20450;49.074;9.158;2024-03-08T08:24:51;99471.28;;;4.95;71.45
34177;BME280;20450;49.074;9.158;2024-03-08T08:27:18;99472.50;;;5.07;71.19
34177;BME280;20450;49.074;9.158;2024-03-08T08:29:45;99476.81;;;5.08;71.40
34177;BME280;20450;49.074;9.158;2024-03-08T08:32:12;99468.41;;;5.11;71.46
34177;BME280;20450;49.074;9.158;2024-03-08T08:34:39;99465.56;;;5.12;71.83
34177;BME280;20450;49.074;9.158;2024-03-08T08:37:06;99462.44;;;5.09;71.19
34177;BME280;20450;49.074;9.158;2024-03-08T08:39:35;99461.66;;;5.00;71.41
34177;BME280;20450;49.074;9.158;2024-03-08T08:42:03;99450.34;;;5.13;71.61
34177;BME280;20450;49.074;9.158;2024-03-08T08:44:31;99449.06;;;5.09;71.07
34177;BME280;20450;49.074;9.158;2024-03-08T08:46:58;99448.28;;;5.15;71.98
34177;BME280;20450;49.074;9.158;2024-03-08T08:49:36;99448.47;;;5.28;71.26
34177;BME280;20450;49.074;9.158;2024-03-08T08:52:03;99446.53;;;5.36;70.46
34177;BME280;20450;49.074;9.158;2024-03-08T08:54:43;99441.69;;;5.46;71.56
34177;BME280;20450;49.074;9.158;2024-03-08T08:57:11;99429.81;;;5.49;70.46
34177;BME280;20450;49.074;9.158;2024-03-08T08:59:38;99431.34;;;5.58;71.02
34177;BME280;20450;49.074;9.158;2024-03-08T09:02:05;99442.25;;;5.56;69.51
34177;BME280;20450;49.074;9.158;2024-03-08T09:04:33;99436.44;;;5.53;69.01
34177;BME280;20450;49.074;9.158;2024-03-08T09:07:00;99437.44;;;5.66;68.39
34177;BME280;20450;49.074;9.158;2024-03-08T09:09:27;99427.59;;;5.73;69.58
34177;BME280;20450;49.074;9.158;2024-03-08T09:11:55;99431.13;;;5.74;69.32
34177;BME280;20450;49.074;9.158;2024-03-08T09:14:22;99427.41;;;5.89;69.00
34177;BME280;20450;49.074;9.158;2024-03-08T09:16:49;99429.84;;;5.84;69.35
34177;BME280;20450;49.074;9.158;2024-03-08T09:19:17;99421.97;;;5.68;69.67
34177;BME280;20450;49.074;9.158;2024-03-08T09:21:44;99425.88;;;6.01;70.47
34177;BME280;20450;49.074;9.158;2024-03-08T09:24:11;99431.94;;;5.74;69.53
34177;BME280;20450;49.074;9.158;2024-03-08T09:26:38;99421.97;;;5.47;68.97
34177;BME280;20450;49.074;9.158;2024-03-08T09:29:06;99415.44;;;5.71;69.42
34177;BME280;20450;49.074;9.158;2024-03-08T09:31:33;99414.94;;;5.82;69.10
34177;BME280;20450;49.074;9.158;2024-03-08T09:34:01;99423.84;;;5.68;69.47
34177;BME280;20450;49.074;9.158;2024-03-08T09:36:27;99414.25;;;5.59;69.62
34177;BME280;20450;49.074;9.158;2024-03-08T09:38:54;99402.78;;;6.00;68.39
34177;BME280;20450;49.074;9.158;2024-03-08T09:41:21;99400.56;;;6.04;67.39
34177;BME280;20450;49.074;9.158;2024-03-08T09:43:48;99397.16;;;6.17;67.62
34177;BME280;20450;49.074;9.158;2024-03-08T09:46:18;99399.75;;;6.10;67.72
34177;BME280;20450;49.074;9.158;2024-03-08T09:48:46;99395.38;;;6.03;67.76
34177;BME280;20450;49.074;9.158;2024-03-08T09:51:13;99392.34;;;6.33;67.86
34177;BME280;20450;49.074;9.158;2024-03-08T09:53:41;99387.69;;;6.21;67.58
34177;BME280;20450;49.074;9.158;2024-03-08T09:56:08;99383.63;;;6.25;67.64
34177;BME280;20450;49.074;9.158;2024-03-08T09:58:35;99391.09;;;6.08;68.46
34177;BME280;20450;49.074;9.158;2024-03-08T10:01:03;99401.63;;;6.10;68.15
34177;BME280;20450;49.074;9.158;2024-03-08T10:03:31;99382.09;;;5.94;68.27
34177;BME280;20450;49.074;9.158;2024-03-08T10:05:59;99393.19;;;6.13;67.49
34177;BME280;20450;49.074;9.158;2024-03-08T10:08:26;99388.63;;;6.34;68.30
34177;BME280;20450;49.074;9.158;2024-03-08T10:10:53;99385.56;;;6.37;66.64
34177;BME280;20450;49.074;9.158;2024-03-08T10:13:20;99386.19;;;6.39;66.38
34177;BME280;20450;49.074;9.158;2024-03-08T10:15:47;99371.47;;;6.29;66.91
34177;BME280;20450;49.074;9.158;2024-03-08T10:18:14;99375.84;;;6.36;66.92
34177;BME280;20450;49.074;9.158;2024-03-08T10:20:43;99367.47;;;6.18;67.96
34177;BME280;20450;49.074;9.158;2024-03-08T10:23:10;99358.50;;;6.32;67.33
34177;BME280;20450;49.074;9.158;2024-03-08T10:25:38;99356.88;;;6.38;66.94
34177;BME280;20450;49.074;9.158;2024-03-08T10:28:05;99358.88;;;6.57;65.82
34177;BME280;20450;49.074;9.158;2024-03-08T10:30:32;99358.22;;;6.82;66.27
34177;BME280;20450;49.074;9.158;2024-03-08T10:32:59;99357.88;;;6.98;65.07
34177;BME280;20450;49.074;9.158;2024-03-08T10:35:26;99353.50;;;7.31;63.63
34177;BME280;20450;49.074;9.158;2024-03-08T10:37:56;99348.75;;;7.33;63.99
34177;BME280;20450;49.074;9.158;2024-03-08T10:40:24;99342.81;;;7.57;63.16
34177;BME280;20450;49.074;9.158;2024-03-08T10:42:54;99340.94;;;7.45;63.17
34177;BME280;20450;49.074;9.158;2024-03-08T10:45:34;99339.53;;;7.55;62.96
34177;BME280;20450;49.074;9.158;2024-03-08T10:48:10;99343.47;;;7.06;64.28
34177;BME280;20450;49.074;9.158;2024-03-08T10:50:51;99342.47;;;7.13;64.22
34177;BME280;20450;49.074;9.158;2024-03-08T10:53:23;99336.38;;;7.39;63.02
34177;BME280;20450;49.074;9.158;2024-03-08T10:55:50;99340.50;;;7.41;62.93
34177;BME280;20450;49.074;9.158;2024-03-08T10:58:18;99337.28;;;7.12;64.80
34177;BME280;20450;49.074;9.158;2024-03-08T11:00:46;99332.88;;;7.45;63.37
34177;BME280;20450;49.074;9.158;2024-03-08T11:03:43;99328.50;;;7.37;63.21
34177;BME280;20450;49.074;9.158;2024-03-08T11:06:14;99325.28;;;7.61;63.94
34177;BME280;20450;49.074;9.158;2024-03-08T11:08:46;99325.53;;;8.64;59.59
34177;BME280;20450;49.074;9.158;2024-03-08T11:11:24;99329.44;;;8.75;58.06
34177;BME280;20450;49.074;9.158;2024-03-08T11:13:55;99342.34;;;9.61;56.26
34177;BME280;20450;49.074;9.158;2024-03-08T11:16:38;99343.72;;;10.57;53.09
34177;BME280;20450;49.074;9.158;2024-03-08T11:19:23;99339.34;;;10.80;52.72
34177;BME280;20450;49.074;9.158;2024-03-08T11:21:57;99325.97;;;10.67;53.85
34177;BME280;20450;49.074;9.158;2024-03-08T11:24:26;99323.50;;;10.84;53.18
34177;BME280;20450;49.074;9.158;2024-03-08T11:26:57;99340.84;;;12.08;49.76
34177;BME280;20450;49.074;9.158;2024-03-08T11:29:35;99318.25;;;11.72;51.43
34177;BME280;20450;49.074;9.158;2024-03-08T11:32:04;99311.56;;;10.73;52.04
34177;BME280;20450;49.074;9.158;2024-03-08T11:34:31;99316.06;;;11.33;51.05
34177;BME280;20450;49.074;9.158;2024-03-08T11:36:59;99312.28;;;11.82;50.47
34177;BME280;20450;49.074;9.158;2024-03-08T11:39:28;99302.81;;;11.43;51.58
34177;BME280;20450;49.074;9.158;2024-03-08T11:41:56;99309.59;;;11.93;50.09
34177;BME280;20450;49.074;9.158;2024-03-08T11:44:26;99322.44;;;12.39;48.45
34177;BME280;20450;49.074;9.158;2024-03-08T11:46:54;99314.63;;;12.20;48.38
34177;BME280;20450;49.074;9.158;2024-03-08T11:49:21;99313.94;;;12.36;48.24
34177;BME280;20450;49.074;9.158;2024-03-08T11:51:51;99318.19;;;13.01;47.27
34177;BME280;20450;49.074;9.158;2024-03-08T11:54:19;99304.28;;;12.63;47.32
34177;BME280;20450;49.074;9.158;2024-03-08T11:56:50;99297.59;;;11.89;48.87
34177;BME280;20450;49.074;9.158;2024-03-08T11:59:18;99273.38;;;11.35;50.54
34177;BME280;20450;49.074;9.158;2024-03-08T12:01:58;99256.84;;;11.43;51.27
34177;BME280;20450;49.074;9.158;2024-03-08T12:04:27;99243.75;;;10.81;52.59
34177;BME280;20450;49.074;9.158;2024-03-08T12:06:54;99229.38;;;10.09;53.86
34177;BME280;20450;49.074;9.158;2024-03-08T12:09:21;99237.84;;;10.30;53.48
34177;BME280;20450;49.074;9.158;2024-03-08T12:11:50;99222.03;;;10.16;54.24
34177;BME280;20450;49.074;9.158;2024-03-08T12:14:17;99206.66;;;10.16;54.87
34177;BME280;20450;49.074;9.158;2024-03-08T12:16:44;99199.00;;;10.67;55.07
34177;BME280;20450;49.074;9.158;2024-03-08T12:19:11;99209.50;;;10.93;53.60
34177;BME280;20450;49.074;9.158;2024-03-08T12:21:38;99205.38;;;10.91;53.77
34177;BME280;20450;49.074;9.158;2024-03-08T12:24:07;99192.25;;;10.40;53.33
34177;BME280;20450;49.074;9.158;2024-03-08T12:26:35;99197.22;;;10.00;53.95
34177;BME280;20450;49.074;9.158;2024-03-08T12:29:19;99187.63;;;10.47;53.42
34177;BME280;20450;49.074;9.158;2024-03-08T12:31:48;99185.16;;;10.46;54.09
34177;BME280;20450;49.074;9.158;2024-03-08T12:34:18;99170.81;;;10.45;53.90
34177;BME280;20450;49.074;9.158;2024-03-08T12:36:47;99191.50;;;10.33;53.00
34177;BME280;20450;49.074;9.158;2024-03-08T12:39:17;99180.88;;;10.38;53.80
34177;BME280;20450;49.074;9.158;2024-03-08T12:41:44;99172.16;;;10.18;53.47
34177;BME280;20450;49.074;9.158;2024-03-08T12:44:11;99175.16;;;10.10;54.51
34177;BME280;20450;49.074;9.158;2024-03-08T12:46:39;99147.69;;;9.95;54.49
34177;BME280;20450;49.074;9.158;2024-03-08T12:49:29;99152.22;;;10.37;54.39
34177;BME280;20450;49.074;9.158;2024-03-08T12:51:56;99150.97;;;10.40;54.83
34177;BME280;20450;49.074;9.158;2024-03-08T12:54:23;99151.84;;;10.52;53.41
34177;BME280;20450;49.074;9.158;2024-03-08T12:56:50;99137.97;;;10.30;56.18
34177;BME280;20450;49.074;9.158;2024-03-08T12:59:17;99141.81;;;10.41;54.27
34177;BME280;20450;49.074;9.158;2024-03-08T13:01:45;99134.28;;;10.61;53.51
34177;BME280;20450;49.074;9.158;2024-03-08T13:04:12;99129.13;;;10.59;53.65
34177;BME280;20450;49.074;9.158;2024-03-08T13:06:41;99126.75;;;10.63;53.62
34177;BME280;20450;49.074;9.158;2024-03-08T13:09:10;99112.50;;;10.74;53.66
34177;BME280;20450;49.074;9.158;2024-03-08T13:11:37;99104.47;;;10.67;54.56
34177;BME280;20450;49.074;9.158;2024-03-08T13:14:04;99096.38;;;10.67;55.40